Minster, Ohio
Current Conditions -  °F | °C
As of 8:53 PM on Monday 24 Nov 2014 (Local Time) from KAXV Reporting Station
Overcast Overcast  
Wind Chill: 28°   Ceiling: 2500
Heat Index: 37°   Visibility: 10mi
Dew Point: 32°   Wind: 17mph
Humidity: 81%   Direction: 250°WSW
Pressure: 29.8"   Gusts: 28mph
Location:  40.39°N, 84.38°W
Report Text: KAXV 250153Z AUTO 25015G24KT 10SM OVC025 03/00 A2980 RMK AO2
Loading
Personal Weather Stations






























Interactive Weather Map New forecast layout! Learn more

10-Day Weather Forecast

Advertisements
Track Severe Weather on mobile